createdAt,value
2018-09-12T00:00:29.345Z,76.70
2018-09-12T00:03:00.362Z,76.80
2018-09-12T00:05:30.343Z,77.60
2018-09-12T00:08:00.913Z,77.40
2018-09-12T00:10:31.235Z,77.40
2018-09-12T00:13:01.769Z,77.20
2018-09-12T00:15:32.509Z,76.90
2018-09-12T00:18:03.514Z,76.40
2018-09-12T00:20:34.034Z,76.50
2018-09-12T00:23:04.558Z,77.20
2018-09-12T00:25:34.892Z,76.60
2018-09-12T00:28:05.243Z,77.00
2018-09-12T00:30:35.770Z,77.00
2018-09-12T00:33:06.358Z,76.30
2018-09-12T00:35:37.684Z,76.50
2018-09-12T00:38:08.234Z,76.80
2018-09-12T00:40:38.770Z,77.50
2018-09-12T00:43:09.602Z,77.10
2018-09-12T00:45:40.106Z,77.40
2018-09-12T00:48:10.614Z,77.60
2018-09-12T00:50:40.954Z,76.80
2018-09-12T00:53:11.780Z,76.00
2018-09-12T00:55:42.082Z,75.90
2018-09-12T00:58:12.630Z,76.30
2018-09-12T01:00:43.445Z,77.00
2018-09-12T01:03:13.989Z,76.50
2018-09-12T01:05:44.515Z,76.50
2018-09-12T01:08:15.074Z,76.70
2018-09-12T01:10:45.610Z,77.70
2018-09-12T01:13:17.017Z,78.50
2018-09-12T01:15:47.321Z,78.60
2018-09-12T01:18:18.453Z,78.60
2018-09-12T01:20:50.194Z,78.20
2018-09-12T01:23:21.545Z,77.30
2018-09-12T01:25:52.070Z,76.50
2018-09-12T01:28:22.986Z,76.50
2018-09-12T01:30:53.290Z,76.20
2018-09-12T01:33:23.844Z,75.40
2018-09-12T01:35:54.368Z,75.10
2018-09-12T01:38:24.900Z,74.70
2018-09-12T01:40:55.202Z,74.20
2018-09-12T01:43:25.742Z,74.20
2018-09-12T01:45:56.359Z,74.80
2018-09-12T01:48:27.154Z,74.40
2018-09-12T01:50:57.734Z,75.30
2018-09-12T01:53:28.283Z,76.40
2018-09-12T01:55:58.805Z,76.40
2018-09-12T01:58:29.323Z,77.40
2018-09-12T02:00:59.838Z,77.70
2018-09-12T02:03:30.730Z,77.40
2018-09-12T02:06:01.238Z,77.00
2018-09-12T02:08:31.796Z,76.20
2018-09-12T02:11:02.630Z,76.10
2018-09-12T02:13:33.158Z,75.50
2018-09-12T02:16:03.710Z,74.60
2018-09-12T02:18:34.255Z,74.50
2018-09-12T02:21:04.570Z,74.60
2018-09-12T02:23:35.263Z,75.40
2018-09-12T02:26:06.114Z,76.80
2018-09-12T02:28:36.422Z,76.30
2018-09-12T02:31:07.170Z,77.10
2018-09-12T02:33:39.141Z,77.50
2018-09-12T02:36:15.030Z,76.90
2018-09-12T02:38:45.922Z,76.30
2018-09-12T02:41:17.002Z,76.70
2018-09-12T02:43:47.726Z,77.50
2018-09-12T02:46:18.266Z,77.10
2018-09-12T02:48:48.838Z,77.00
2018-09-12T02:51:19.370Z,76.80
2018-09-12T02:53:49.892Z,77.00
2018-09-12T02:56:20.223Z,76.80
2018-09-12T02:58:50.213Z,76.80
2018-09-12T03:01:20.736Z,76.70
2018-09-12T03:03:51.071Z,77.10
2018-09-12T03:06:21.780Z,76.70
2018-09-12T03:08:52.691Z,76.00
2018-09-12T03:11:23.006Z,75.70
2018-09-12T03:13:53.314Z,76.40
2018-09-12T03:16:23.831Z,76.90
2018-09-12T03:18:54.358Z,77.00
2018-09-12T03:21:24.662Z,76.70
2018-09-12T03:23:55.358Z,76.80
2018-09-12T03:26:25.870Z,77.80
2018-09-12T03:28:56.703Z,77.70
2018-09-12T03:31:27.446Z,77.90
2018-09-12T03:33:57.978Z,77.40
2018-09-12T03:36:28.502Z,77.40
2018-09-12T03:38:59.254Z,77.20
2018-09-12T03:41:29.558Z,78.00
2018-09-12T03:43:59.352Z,77.80
2018-09-12T03:46:29.882Z,77.60
2018-09-12T03:49:00.682Z,76.90
2018-09-12T03:51:31.238Z,76.80
2018-09-12T03:54:01.783Z,77.20
2018-09-12T03:56:32.350Z,77.70
2018-09-12T03:59:02.734Z,78.30
2018-09-12T04:01:33.237Z,78.00
2018-09-12T04:04:03.795Z,78.40
2018-09-12T04:06:34.110Z,77.40
2018-09-12T04:09:04.839Z,76.40
2018-09-12T04:11:35.354Z,76.20
2018-09-12T04:14:06.183Z,75.70
2018-09-12T04:16:36.765Z,75.70
2018-09-12T04:19:07.641Z,76.10
2018-09-12T04:21:38.378Z,75.80
2018-09-12T04:24:09.679Z,75.40
2018-09-12T04:26:40.455Z,75.90
2018-09-12T04:29:11.038Z,75.40
2018-09-12T04:31:41.754Z,74.90
2018-09-12T04:34:12.080Z,74.80
2018-09-12T04:36:42.391Z,74.60
2018-09-12T04:39:13.542Z,74.90
2018-09-12T04:41:44.438Z,74.80
2018-09-12T04:44:15.393Z,74.70
2018-09-12T04:46:45.942Z,74.80
2018-09-12T04:49:16.289Z,74.90
2018-09-12T04:51:47.025Z,75.10
2018-09-12T04:54:17.566Z,75.40
2018-09-12T04:56:48.106Z,74.80
2018-09-12T04:59:18.687Z,74.60
2018-09-12T05:01:49.195Z,74.80
2018-09-12T05:04:19.730Z,74.60
2018-09-12T05:06:50.038Z,74.80
2018-09-12T05:09:20.559Z,75.00
2018-09-12T05:11:51.084Z,75.30
2018-09-12T05:14:21.685Z,75.30
2018-09-12T05:16:52.710Z,74.80
2018-09-12T05:19:23.529Z,74.80
2018-09-12T05:21:54.069Z,75.20
2018-09-12T05:24:24.644Z,75.30
2018-09-12T05:26:55.134Z,75.40
2018-09-12T05:29:25.860Z,75.10
2018-09-12T05:32:13.455Z,75.50
2018-09-12T05:34:45.055Z,75.50
2018-09-12T05:37:15.374Z,75.70
2018-09-12T05:39:46.215Z,75.90
2018-09-12T05:42:16.535Z,76.60
2018-09-12T05:44:47.121Z,77.50
2018-09-12T05:47:17.462Z,77.70
2018-09-12T05:49:47.993Z,75.90
2018-09-12T05:52:18.263Z,75.40
2018-09-12T05:54:49.426Z,75.60
2018-09-12T05:57:20.222Z,75.30
2018-09-12T05:59:50.752Z,75.10
2018-09-12T06:02:21.070Z,74.40
2018-09-12T06:04:51.682Z,74.40
2018-09-12T06:07:22.193Z,74.00
2018-09-12T06:09:52.945Z,74.30
2018-09-12T06:12:23.462Z,74.50
2018-09-12T06:14:54.018Z,74.90
2018-09-12T06:17:24.606Z,75.40
2018-09-12T06:19:55.186Z,74.90
2018-09-12T06:22:25.490Z,74.80
2018-09-12T06:24:56.142Z,74.70
2018-09-12T06:27:26.457Z,73.70
2018-09-12T06:29:56.835Z,73.70
2018-09-12T06:32:27.162Z,73.50
2018-09-12T06:34:57.446Z,73.40
2018-09-12T06:37:27.862Z,73.10
2018-09-12T06:39:58.410Z,73.00
2018-09-12T06:42:28.660Z,73.40
2018-09-12T06:44:59.086Z,73.10
2018-09-12T06:47:29.654Z,73.10
2018-09-12T06:49:59.370Z,72.60
2018-09-12T06:52:29.385Z,72.70
2018-09-12T06:54:59.910Z,72.90
2018-09-12T06:57:30.882Z,72.90
2018-09-12T07:00:03.033Z,72.80
2018-09-12T07:02:33.178Z,73.00
2018-09-12T07:05:04.627Z,73.70
2018-09-12T07:07:34.845Z,73.80
2018-09-12T07:10:06.098Z,73.70
2018-09-12T07:12:36.106Z,74.00
2018-09-12T07:15:06.740Z,74.30
2018-09-12T07:17:36.946Z,74.20
2018-09-12T07:20:07.557Z,74.10
2018-09-12T07:22:38.174Z,74.30
2018-09-12T07:25:08.826Z,74.30
2018-09-12T07:27:38.895Z,74.60
2018-09-12T07:30:09.059Z,75.40
2018-09-12T07:32:39.837Z,75.50
2018-09-12T07:35:10.100Z,74.80
2018-09-12T07:37:40.167Z,74.50
2018-09-12T07:40:10.834Z,74.30
2018-09-12T07:42:40.826Z,74.00
2018-09-12T07:45:11.734Z,74.10
2018-09-12T07:47:41.720Z,74.20
2018-09-12T07:50:11.707Z,73.80
2018-09-12T07:52:42.114Z,74.10
2018-09-12T07:55:12.691Z,74.20
2018-09-12T07:57:42.863Z,73.90
2018-09-12T08:00:13.678Z,73.90
2018-09-12T08:02:43.723Z,73.70
2018-09-12T08:05:14.003Z,73.30
2018-09-12T08:07:44.170Z,73.40
2018-09-12T08:10:14.187Z,73.50
2018-09-12T08:12:44.146Z,73.60
2018-09-12T08:15:14.118Z,73.80
2018-09-12T08:17:44.100Z,74.50
2018-09-12T08:20:14.080Z,75.20
2018-09-12T08:22:44.050Z,75.10
2018-09-12T08:25:14.028Z,74.60
2018-09-12T08:27:44.002Z,74.10
2018-09-12T08:30:14.873Z,73.70
2018-09-12T08:32:44.974Z,73.50
2018-09-12T08:35:16.579Z,73.40
2018-09-12T08:37:47.131Z,73.20
2018-09-12T08:40:17.107Z,73.30
2018-09-12T08:42:47.102Z,72.80
2018-09-12T08:45:17.130Z,72.70
2018-09-12T08:47:47.196Z,72.60
2018-09-12T08:50:17.074Z,73.00
2018-09-12T08:52:47.302Z,72.80
2018-09-12T08:55:17.270Z,73.20
2018-09-12T08:57:47.275Z,72.60
2018-09-12T09:00:17.289Z,72.70
2018-09-12T09:02:47.427Z,72.50
2018-09-12T09:05:17.434Z,72.10
2018-09-12T09:07:47.418Z,72.30
2018-09-12T09:10:17.190Z,72.40
2018-09-12T09:12:47.835Z,73.00
2018-09-12T09:15:18.655Z,72.60
2018-09-12T09:17:48.650Z,73.00
2018-09-12T09:20:18.574Z,73.40
2018-09-12T09:22:48.571Z,73.40
2018-09-12T09:25:19.276Z,73.00
2018-09-12T09:27:49.847Z,72.70
2018-09-12T09:30:20.188Z,72.30
2018-09-12T09:32:50.458Z,72.40
2018-09-12T09:35:21.437Z,71.80
2018-09-12T09:37:52.228Z,71.90
2018-09-12T09:40:23.574Z,72.10
2018-09-12T09:51:52.585Z,70.60
2018-09-12T09:54:23.122Z,70.80
2018-09-12T09:56:53.287Z,70.50
2018-09-12T09:59:23.274Z,70.40
2018-09-12T10:01:59.357Z,70.40
2018-09-12T10:04:35.382Z,70.80
2018-09-12T10:08:11.255Z,71.00
2018-09-12T10:10:41.238Z,70.70
2018-09-12T10:13:11.208Z,71.00
2018-09-12T10:15:40.966Z,70.60
2018-09-12T10:18:11.024Z,70.50
2018-09-12T10:20:40.978Z,70.00
2018-09-12T10:23:13.842Z,70.00
2018-09-12T10:25:43.922Z,69.10
2018-09-12T10:28:13.698Z,70.50
2018-09-12T10:30:43.750Z,70.70
2018-09-12T10:33:14.451Z,69.80
2018-09-12T10:35:45.027Z,69.70
2018-09-12T10:38:15.495Z,68.90
2018-09-12T10:40:45.522Z,68.40
2018-09-12T10:43:15.899Z,69.40
2018-09-12T10:45:46.459Z,69.80
2018-09-12T10:48:16.234Z,69.30
2018-09-12T10:50:46.778Z,70.30
2018-09-12T10:53:18.270Z,69.50
2018-09-12T10:55:48.240Z,68.70
2018-09-12T10:58:18.214Z,68.70
2018-09-12T11:00:48.182Z,69.20
2018-09-12T11:03:18.739Z,68.90
2018-09-12T11:05:49.038Z,69.20
2018-09-12T11:08:19.693Z,69.20
2018-09-12T11:10:50.234Z,69.70
2018-09-12T11:13:20.355Z,70.20
2018-09-12T11:15:50.925Z,70.10
2018-09-12T11:18:21.102Z,69.90
2018-09-12T11:20:51.358Z,70.70
2018-09-12T11:23:22.062Z,69.90
2018-09-12T11:25:52.598Z,69.40
2018-09-12T11:28:23.246Z,68.90
2018-09-12T11:30:53.790Z,69.40
2018-09-12T11:33:23.783Z,68.10
2018-09-12T11:35:53.548Z,68.90
2018-09-12T11:38:24.104Z,68.30
2018-09-12T11:40:54.082Z,67.00
2018-09-12T11:43:24.062Z,67.50
2018-09-12T11:45:54.274Z,69.80
2018-09-12T11:48:24.294Z,69.50
2018-09-12T11:50:55.031Z,70.00
2018-09-12T11:53:25.366Z,70.90
2018-09-12T11:55:55.348Z,70.50
2018-09-12T11:58:25.538Z,69.40
2018-09-12T12:00:55.748Z,70.10
2018-09-12T12:03:25.541Z,70.50
2018-09-12T12:05:56.276Z,70.50
2018-09-12T12:08:27.014Z,70.40
2018-09-12T12:10:56.990Z,70.40
2018-09-12T12:13:26.987Z,69.60
2018-09-12T12:15:57.531Z,69.40
2018-09-12T12:18:29.012Z,70.30
2018-09-12T12:20:58.987Z,69.80
2018-09-12T12:23:28.968Z,68.50
2018-09-12T12:25:59.498Z,68.80
2018-09-12T12:28:29.607Z,67.10
2018-09-12T12:31:00.386Z,67.20
2018-09-12T12:33:31.183Z,67.90
2018-09-12T12:36:01.324Z,67.90
2018-09-12T12:38:31.911Z,67.00
2018-09-12T12:41:02.282Z,67.40
2018-09-12T12:43:32.571Z,67.50
2018-09-12T12:46:02.568Z,68.50
2018-09-12T12:48:32.711Z,67.70
2018-09-12T12:51:03.263Z,67.80
2018-09-12T12:53:33.817Z,67.90
2018-09-12T12:56:04.334Z,67.50
2018-09-12T12:58:34.112Z,68.20
2018-09-12T13:01:04.660Z,66.00
2018-09-12T13:03:35.502Z,64.70
2018-09-12T13:06:06.738Z,66.50
2018-09-12T13:08:37.266Z,65.70
2018-09-12T13:11:07.279Z,66.30
2018-09-12T13:13:37.826Z,66.10
2018-09-12T13:16:08.151Z,65.60
2018-09-12T13:18:38.731Z,65.80
2018-09-12T13:21:09.085Z,65.00
2018-09-12T13:23:39.627Z,66.00
2018-09-12T13:26:09.947Z,66.30
2018-09-12T13:28:40.515Z,65.80
2018-09-12T13:31:10.570Z,66.30
2018-09-12T13:33:41.123Z,66.10
2018-09-12T13:36:11.240Z,66.00
2018-09-12T13:38:41.301Z,65.90
2018-09-12T13:41:11.835Z,66.70
2018-09-12T13:43:42.017Z,66.30
2018-09-12T13:46:12.739Z,66.70
2018-09-12T13:48:42.749Z,66.30
2018-09-12T13:51:12.763Z,66.30
2018-09-12T13:53:42.771Z,66.30
2018-09-12T13:56:13.306Z,67.60
2018-09-12T13:58:45.750Z,67.50
2018-09-12T14:01:16.353Z,67.40
2018-09-12T14:03:46.965Z,66.90
2018-09-12T14:06:16.945Z,66.80
2018-09-12T14:08:47.027Z,67.30
2018-09-12T14:11:17.878Z,67.20
2018-09-12T14:13:47.910Z,66.30
2018-09-12T14:16:17.681Z,64.70
2018-09-12T14:18:47.752Z,65.10
2018-09-12T14:21:18.310Z,66.10
2018-09-12T14:23:48.942Z,65.80
2018-09-12T14:26:19.609Z,65.00
2018-09-12T14:28:50.387Z,63.60
2018-09-12T14:31:21.042Z,64.10
2018-09-12T14:33:51.778Z,64.60
2018-09-12T14:36:21.938Z,63.10
2018-09-12T14:38:52.548Z,64.00
2018-09-12T14:41:22.711Z,64.30
2018-09-12T14:43:52.893Z,64.50
2018-09-12T14:46:23.422Z,65.00
2018-09-12T14:48:53.414Z,65.30
2018-09-12T14:51:23.428Z,65.60
2018-09-12T14:53:54.548Z,65.50
2018-09-12T14:56:24.530Z,65.10
2018-09-12T14:58:54.494Z,65.70
2018-09-12T15:01:25.206Z,65.80
2018-09-12T15:03:55.230Z,64.80
2018-09-12T15:06:25.262Z,65.00
2018-09-12T15:08:55.245Z,64.30
2018-09-12T15:11:25.050Z,65.50
2018-09-12T15:13:57.086Z,64.70
2018-09-12T15:16:27.071Z,65.20
2018-09-12T15:18:56.938Z,65.80
2018-09-12T15:21:27.478Z,65.90
2018-09-12T15:23:57.236Z,66.60
2018-09-12T15:26:27.255Z,66.50
2018-09-12T15:28:57.814Z,67.00
2018-09-12T15:31:27.946Z,66.60
2018-09-12T15:33:59.518Z,66.30
2018-09-12T15:36:29.319Z,65.30
2018-09-12T15:38:59.866Z,65.00
2018-09-12T15:41:29.874Z,64.20
2018-09-12T15:44:00.643Z,64.30
2018-09-12T15:46:31.530Z,64.20
2018-09-12T15:49:01.306Z,64.20
2018-09-12T15:51:31.879Z,63.70
2018-09-12T15:54:02.420Z,63.10
2018-09-12T15:56:32.234Z,63.40
2018-09-12T15:59:02.053Z,63.40
2018-09-12T16:01:32.559Z,63.40
2018-09-12T16:04:02.311Z,63.50
2018-09-12T16:06:33.014Z,62.90
2018-09-12T16:09:02.983Z,62.80
2018-09-12T16:11:33.520Z,62.90
2018-09-12T16:14:04.503Z,63.00
2018-09-12T16:16:35.316Z,63.30
2018-09-12T16:19:06.086Z,63.50
2018-09-12T16:21:36.702Z,63.10
2018-09-12T16:24:06.900Z,63.20
2018-09-12T16:26:37.042Z,63.80
2018-09-12T16:29:07.242Z,63.80
2018-09-12T16:31:37.334Z,64.00
2018-09-12T16:34:07.784Z,63.90
2018-09-12T16:36:38.163Z,64.30
2018-09-12T16:39:11.241Z,64.30
2018-09-12T16:41:41.603Z,64.30
2018-09-12T16:44:11.834Z,63.90
2018-09-12T16:46:42.002Z,63.60
2018-09-12T16:49:12.051Z,63.50
2018-09-12T16:51:42.157Z,63.50
2018-09-12T16:54:12.357Z,63.10
2018-09-12T16:56:42.950Z,62.90
2018-09-12T16:59:13.065Z,62.80
2018-09-12T17:01:42.827Z,63.00
2018-09-12T17:04:13.365Z,63.40
2018-09-12T17:06:43.338Z,63.80
2018-09-12T17:09:13.911Z,62.80
2018-09-12T17:11:43.866Z,62.70
2018-09-12T17:14:13.912Z,63.10
2018-09-12T17:16:44.022Z,62.80
2018-09-12T17:19:14.022Z,63.30
2018-09-12T17:21:44.567Z,62.80
2018-09-12T17:24:14.846Z,63.10
2018-09-12T17:26:44.611Z,63.60
2018-09-12T17:29:14.625Z,63.50
2018-09-12T17:31:44.695Z,63.00
2018-09-12T17:34:14.980Z,63.00
2018-09-12T17:36:45.482Z,63.50
2018-09-12T17:39:15.473Z,63.50
2018-09-12T17:41:45.494Z,63.10
2018-09-12T17:44:16.101Z,63.20
2018-09-12T17:46:46.607Z,63.60
2018-09-12T17:49:17.218Z,63.70
2018-09-12T17:51:46.970Z,64.10
2018-09-12T17:54:17.518Z,63.80
2018-09-12T17:56:47.300Z,63.70
2018-09-12T17:59:17.663Z,64.10
2018-09-12T18:01:47.997Z,64.30
2018-09-12T18:04:17.985Z,64.00
2018-09-12T18:06:47.982Z,64.30
2018-09-12T18:09:18.306Z,64.30
2018-09-12T18:11:48.068Z,64.30
2018-09-12T18:14:18.074Z,64.40
2018-09-12T18:16:48.059Z,64.60
2018-09-12T18:19:18.050Z,64.40
2018-09-12T18:21:48.088Z,64.30
2018-09-12T18:24:18.134Z,64.20
2018-09-12T18:26:48.814Z,64.50
2018-09-12T18:29:19.688Z,64.40
2018-09-12T18:31:49.902Z,64.40
2018-09-12T18:34:19.893Z,64.20
2018-09-12T18:36:50.222Z,64.00
2018-09-12T18:39:20.491Z,64.00
2018-09-12T18:41:50.666Z,63.70
2018-09-12T18:44:20.478Z,63.60
2018-09-12T18:46:50.246Z,63.60
2018-09-12T18:49:20.758Z,64.00
2018-09-12T18:51:50.726Z,63.70
2018-09-12T18:54:21.118Z,63.70
2018-09-12T18:56:50.941Z,63.60
2018-09-12T18:59:20.983Z,63.70
2018-09-12T19:01:50.738Z,63.60
2018-09-12T19:04:20.539Z,63.60
2018-09-12T19:06:50.869Z,63.80
2018-09-12T19:09:20.998Z,63.70
2018-09-12T19:11:51.878Z,63.80
2018-09-12T19:14:21.848Z,63.60
2018-09-12T19:16:51.606Z,63.90
2018-09-12T19:19:21.611Z,63.90
2018-09-12T19:21:51.799Z,63.40
2018-09-12T19:24:22.028Z,63.80
2018-09-12T19:26:52.042Z,64.00
2018-09-12T19:29:22.002Z,64.00
2018-09-12T19:31:51.750Z,64.30
2018-09-12T19:34:22.046Z,64.20
2018-09-12T19:36:51.810Z,64.40
2018-09-12T19:39:22.347Z,64.20
2018-09-12T19:41:52.144Z,64.10
2018-09-12T19:44:22.850Z,64.10
2018-09-12T19:46:52.606Z,64.00
2018-09-12T19:49:23.330Z,64.10
2018-09-12T19:51:53.214Z,64.20
2018-09-12T19:54:23.172Z,64.00
2018-09-12T19:56:53.140Z,64.10
2018-09-12T19:59:23.122Z,64.20
2018-09-12T20:01:53.163Z,64.40
2018-09-12T20:04:24.106Z,64.40
2018-09-12T20:06:54.154Z,64.70
2018-09-12T20:09:24.278Z,64.90
2018-09-12T20:11:54.407Z,64.80
2018-09-12T20:14:24.813Z,64.80
2018-09-12T20:16:55.726Z,64.70
2018-09-12T20:19:25.969Z,64.70
2018-09-12T20:21:55.739Z,64.40
2018-09-12T20:24:25.484Z,64.40
2018-09-12T20:26:55.542Z,64.60
2018-09-12T20:29:25.579Z,64.90
2018-09-12T20:31:55.730Z,64.90
2018-09-12T20:34:26.458Z,64.90
2018-09-12T20:36:56.631Z,64.80
2018-09-12T20:39:26.591Z,64.80
2018-09-12T20:41:57.127Z,64.60
2018-09-12T20:44:27.662Z,64.80
2018-09-12T20:46:57.647Z,64.80
2018-09-12T20:49:27.411Z,64.80
2018-09-12T20:51:57.390Z,64.90
2018-09-12T20:54:27.657Z,65.10
2018-09-12T20:56:57.434Z,65.10
2018-09-12T20:59:27.502Z,65.20
2018-09-12T21:01:57.484Z,65.10
2018-09-12T21:04:27.446Z,65.00
2018-09-12T21:06:57.456Z,65.10
2018-09-12T21:09:28.022Z,65.00
2018-09-12T21:11:58.342Z,65.20
2018-09-12T21:14:28.627Z,65.10
2018-09-12T21:16:58.846Z,65.20
2018-09-12T21:19:28.818Z,65.00
2018-09-12T21:21:58.810Z,65.00
2018-09-12T21:24:31.074Z,64.90
2018-09-12T21:27:01.393Z,65.20
2018-09-12T21:29:31.393Z,65.30
2018-09-12T21:32:01.367Z,65.10
2018-09-12T21:34:31.353Z,65.20
2018-09-12T21:37:03.002Z,65.10
2018-09-12T21:39:33.171Z,65.70
2018-09-12T21:42:03.160Z,65.50
2018-09-12T21:44:33.310Z,65.50
2018-09-12T21:47:03.282Z,65.30
2018-09-12T21:49:33.514Z,65.30
2018-09-12T21:52:03.751Z,65.50
2018-09-12T21:54:33.739Z,65.70
2018-09-12T21:57:04.043Z,65.50
2018-09-12T21:59:33.804Z,65.50
2018-09-12T22:02:04.129Z,65.50
2018-09-12T22:04:33.853Z,65.50
2018-09-12T22:07:03.602Z,65.60
2018-09-12T22:09:33.565Z,65.80
2018-09-12T22:12:03.532Z,65.50
2018-09-12T22:14:33.499Z,65.70
2018-09-12T22:17:03.488Z,65.70
2018-09-12T22:19:33.483Z,65.80
2018-09-12T22:22:04.025Z,66.00
2018-09-12T22:24:34.558Z,65.90
2018-09-12T22:27:04.538Z,66.10
2018-09-12T22:29:35.066Z,65.90
2018-09-12T22:32:05.594Z,65.70
2018-09-12T22:34:35.590Z,66.20
2018-09-12T22:37:05.366Z,66.40
2018-09-12T22:39:35.347Z,66.20
2018-09-12T22:42:05.345Z,66.20
2018-09-12T22:44:35.508Z,66.10
2018-09-12T22:47:12.002Z,65.90
2018-09-12T22:49:41.784Z,66.00
2018-09-12T22:52:11.746Z,66.30
2018-09-12T22:54:41.515Z,66.40
2018-09-12T22:57:11.288Z,66.40
2018-09-12T22:59:41.297Z,66.40
2018-09-12T23:02:11.042Z,66.00
2018-09-12T23:04:41.041Z,65.80
2018-09-12T23:07:11.542Z,65.70
2018-09-12T23:09:41.302Z,66.10
2018-09-12T23:12:11.068Z,66.00
2018-09-12T23:14:40.818Z,66.10
2018-09-12T23:17:11.114Z,66.00
2018-09-12T23:19:41.176Z,66.10
2018-09-12T23:22:11.400Z,66.00
2018-09-12T23:24:41.140Z,66.10
2018-09-12T23:27:11.118Z,65.90
2018-09-12T23:29:41.426Z,65.90
2018-09-12T23:32:11.397Z,65.80
2018-09-12T23:34:41.152Z,65.70
2018-09-12T23:37:11.126Z,65.60
2018-09-12T23:39:40.867Z,65.70
2018-09-12T23:42:10.638Z,65.70
2018-09-12T23:44:40.430Z,65.70
2018-09-12T23:47:10.506Z,65.80
2018-09-12T23:49:40.266Z,66.00
2018-09-12T23:52:10.246Z,66.00
2018-09-12T23:54:40.238Z,66.10
2018-09-12T23:57:10.192Z,66.10
2018-09-12T23:59:40.230Z,66.20
